sim
Sign-in with your pilot id or email,
or register
Callsign
Passwort

Schedule Details

Flight Number: DLH1817
Departure: Barcelona El Prat Airport (LEBL) at 07:00
Arrival: Munich Airport (EDDM) at 09:00
Route: Lufthansa Passenger Schedule. Enter filed route here before submitting Pirep.

Weather Information
Getting current METAR information for LEBL 220400Z 33009KT 9999 FEW020 19/16 Q1014 NOSIG
Getting current METAR information for EDDM 220350Z 00000KT 1600 0700S R08L/0500N R08R/0700N BCFG FEW002 08/08 Q1015 TEMPO 0700 FG BKN002

Schedule Frequency

Route Map